Details From LPAZ - Santa Maria
To TNCM - St Maarten - Princess Juliana Intl
Flight Number -
Tags Generated
Created
Modified
Stats Distance 2,297 nm / 4,255 km
Max Altitude 0 ft / 0 m
Waypoints 3
Social Downloads 3
Likes 0
Share VATSIM

Download

Looking for another format? Having issues loading an existing format? Contact us
Advertisement - Login to hide

Notes

Generated

Route

LPAZ PJD TNCM

ID Type Via Altitude Latitude Longitude Leg Dist Tot Dist Heading (true) Name
O LPAZ APT - 0 ft / 0 m 36.97389˚ -25.17583˚ - 0 nm - -
PJD NDB - 0 ft / 0 m 18.03833˚ -63.11833˚ 2297 nm 2297 nm 251° / 233° ST MAARTEN NDB
O TNCM APT - 0 ft / 0 m 18.03937˚ -63.11961˚ 0 nm 2297 nm 310° / 310° -

Altitude Profile

Advertisement - Login to hide

Weather


0- 5 10 15 20 25 30 35+ Temperature / ° C

Clouds and Precipitation
Forecast for 2018-05-23 12:00 UTC. Updated 2 hours ago

Ground ~20,000 ft ~40,000 ft Winds

LPAZ

Details ICAO LPAZ (SMA)
Name SANTA MARIA
Region Portugal
Timezone Atlantic/Azores (UTC+0.0)
Stats Elevation 308 ft / 94 m (AMSL)
Location 36.972732° -25.170532°
Runways 3
Magnetic Variation 8.074° W

METAR

LPAZ 231230Z 31012KT 9999 FEW030 19/09 Q1023

Decode

TAF

TAF LPAZ 231100Z 2312/2418 31010KT 9999 FEW030 TEMPO 2312/2320 SCT025 BKN045 BECMG 2320/2322 SCT015 BKN030 BECMG 2400/2403 SCT004 BKN012 PROB40 TEMPO 2403/2412 3000 DZRA BR SCT002 BKN004 BECMG 2403/2405 09007KT BECMG 2410/2412 VRB05KT SCT015 SCT030

Decode

Departure Runways

ID Width Length Bearing (true) Bearing (mag) Surface Threshold Offset Overrun Length
04 148 ft / 45 m 4,351 ft / 1,326 m 27.72° 35.79° Asphalt 0 ft / 0 m 210 ft / 64 m
15 148 ft / 45 m 6,061 ft / 1,847 m 135.98° 144.05° Asphalt 0 ft / 0 m 210 ft / 64 m
18 197 ft / 60 m 10,058 ft / 3,066 m 170.97° 179.04° Concrete 0 ft / 0 m 1,000 ft / 305 m
22 148 ft / 45 m 4,351 ft / 1,326 m 207.73° 215.80° Asphalt 0 ft / 0 m 125 ft / 38 m
33 148 ft / 45 m 6,061 ft / 1,847 m 315.99° 324.06° Asphalt 0 ft / 0 m 625 ft / 191 m
36 197 ft / 60 m 10,058 ft / 3,066 m 350.97° 359.04° Concrete 0 ft / 0 m 1,000 ft / 305 m

TNCM

Details ICAO TNCM (SXM)
Name St Maarten - Princess Juliana Intl
Region Caribbean Netherlands, Aruba, Curaçao, Sint Maarten
Timezone Unknown (UTC+0.0)
Stats Elevation 12 ft / 4 m (AMSL)
Location 18.040889° -63.108974°
Runways 1
Magnetic Variation 14.337° W

METAR

TNCM 231200Z 09012KT 050V120 9999 SCT018 28/22 Q1019 A3010 NOSIG

Decode

TAF

TAF TAF TNCM 231130Z 2312/2412 09012KT P6SM SCT020

Decode

Destination Runways

ID Width Length Bearing (true) Bearing (mag) Surface Threshold Offset Overrun Length
10 148 ft / 45 m 7,464 ft / 2,275 m 81.43° 95.77° Asphalt 0 ft / 0 m 151 ft / 46 m
28 148 ft / 45 m 7,464 ft / 2,275 m 261.44° 275.78° Asphalt 397 ft / 121 m 0 ft / 0 m

Popular Alternatives